.
WxDataArchive / Data Records for 2012-09-17
2012-09-16 September 2012 2012-09-18

Data Records for Monday, 17 September 2012

Time	Temp	Chill	HIndex	Humid	Dewpt	 Wind 	HiWind	WindDir	Rain 	Barom 
-----	----	-----	------	-----	-----	------	------	-------	-----	----- 
00:00	55.1	55.1	55.1	81	49.4	0	0	---	0.00	30.018 
00:05	55.1	55.1	55.1	81	49.4	0	0	---	0.00	30.018 
00:10	55.0	55.0	55.0	81	49.3	0	0	---	0.00	30.018 
00:15	54.8	54.8	54.8	82	49.4	0	0	---	0.00	30.015 
00:20	54.8	54.8	54.8	82	49.4	0	0	---	0.00	30.015 
00:25	54.7	54.7	54.7	83	49.6	0	0	---	0.00	30.015 
00:30	54.7	54.7	54.7	83	49.6	0	0	---	0.00	30.014 
00:35	54.5	54.5	54.5	83	49.4	0	0	---	0.00	30.014 
00:40	54.4	54.4	54.4	83	49.3	0	0	---	0.00	30.014 
00:45	54.2	54.2	54.2	84	49.5	0	0	---	0.00	30.010 
00:50	54.2	54.2	54.2	84	49.5	0	0	---	0.00	30.010 
00:55	54.1	54.1	54.1	84	49.4	0	0	---	0.00	30.010 
01:00	53.9	53.9	53.9	84	49.2	0	0	---	0.00	30.007 
01:05	53.8	53.8	53.8	84	49.1	0	0	---	0.00	30.007 
01:10	53.8	53.8	53.8	85	49.4	0	0	---	0.00	30.007 
01:15	53.6	53.6	53.6	85	49.2	0	0	---	0.00	30.009 
01:20	53.6	53.6	53.6	85	49.2	0	0	---	0.00	30.009 
01:25	53.5	53.5	53.5	86	49.4	0	0	---	0.00	30.009 
01:30	53.5	53.5	53.5	86	49.4	0	0	---	0.00	30.006 
01:35	53.3	53.3	53.3	86	49.2	0	0	---	0.00	30.006 
01:40	53.2	53.2	53.2	86	49.1	0	1	270	0.00	30.006 
01:45	52.9	52.9	52.9	87	49.1	0	1	---	0.00	30.004 
01:50	52.9	52.9	52.9	87	49.1	0	0	---	0.00	30.004 
01:55	52.8	52.8	52.8	87	49.0	0	0	---	0.00	30.004 
02:00	52.6	52.6	52.6	87	48.8	0	0	---	0.00	30.008 
02:05	52.5	52.5	52.5	88	49.0	0	0	---	0.00	30.008 
02:10	52.5	52.5	52.5	88	49.0	0	0	---	0.00	30.008 
02:15	52.5	52.5	52.5	88	49.0	0	0	---	0.00	30.004 
02:20	52.5	52.5	52.5	88	49.0	0	0	---	0.00	30.004 
02:25	52.3	52.3	52.3	89	49.2	0	0	---	0.00	30.004 
02:30	52.2	52.2	52.2	89	49.1	0	0	---	0.00	30.007 
02:35	52.2	52.2	52.2	89	49.1	0	0	---	0.00	30.007 
02:40	52.0	52.0	52.0	89	48.9	0	0	---	0.00	30.007 
02:45	51.9	51.9	51.9	89	48.8	0	0	---	0.00	29.999 
02:50	51.9	51.9	51.9	89	48.8	0	0	---	0.00	29.999 
02:55	51.7	51.7	51.7	89	48.6	0	0	---	0.00	29.999 
03:00	51.6	51.6	51.6	89	48.5	0	0	---	0.00	29.994 
03:05	51.6	51.6	51.6	90	48.8	0	0	---	0.00	29.994 
03:10	51.4	51.4	51.4	90	48.6	0	0	---	0.00	29.994 
03:15	51.4	51.4	51.4	90	48.6	0	0	---	0.00	29.990 
03:20	51.3	51.3	51.3	90	48.5	0	0	---	0.00	29.990 
03:25	51.1	51.1	51.1	90	48.3	0	0	---	0.00	29.990 
03:30	51.0	51.0	51.0	90	48.2	0	0	---	0.00	29.983 
03:35	51.0	51.0	51.0	91	48.5	0	0	---	0.00	29.983 
03:40	51.1	51.1	51.1	91	48.6	0	0	---	0.00	29.983 
03:45	51.1	51.1	51.1	91	48.6	0	0	---	0.00	29.981 
03:50	51.3	51.3	51.3	91	48.8	0	0	---	0.00	29.981 
03:55	51.1	51.1	51.1	91	48.6	0	0	---	0.00	29.981 
04:00	51.1	51.1	51.1	91	48.6	0	0	---	0.00	29.972 
04:05	51.0	51.0	51.0	91	48.5	0	0	---	0.00	29.972 
04:10	51.0	51.0	51.0	92	48.8	0	0	---	0.00	29.972 
04:15	50.8	50.8	50.8	92	48.6	0	0	---	0.00	29.971 
04:20	50.8	50.8	50.8	92	48.6	0	0	---	0.00	29.971 
04:25	50.7	50.7	50.7	92	48.5	0	0	---	0.00	29.971 
04:30	50.5	50.5	50.5	92	48.3	0	0	---	0.00	29.970 
04:35	50.5	50.5	50.5	92	48.3	0	0	---	0.00	29.970 
04:40	50.4	50.4	50.4	92	48.2	0	0	---	0.00	29.970 
04:45	50.4	50.4	50.4	92	48.2	0	0	---	0.00	29.967 
04:50	50.2	50.2	50.2	92	48.0	0	0	---	0.00	29.967 
04:55	50.2	50.2	50.2	92	48.0	0	0	---	0.00	29.967 
05:00	50.2	50.2	50.2	92	48.0	0	0	---	0.00	29.967 
05:05	50.2	50.2	50.2	92	48.0	0	0	---	0.00	29.967 
05:10	50.1	50.1	50.1	92	47.9	0	0	---	0.00	29.967 
05:15	50.1	50.1	50.1	92	47.9	0	0	---	0.00	29.965 
05:20	49.9	49.9	49.9	92	47.7	0	0	---	0.00	29.965 
05:25	49.8	49.8	49.8	92	47.6	0	0	---	0.00	29.965 
05:30	49.8	49.8	49.8	92	47.6	0	0	---	0.00	29.958 
05:35	49.6	49.6	49.6	92	47.4	0	0	---	0.00	29.958 
05:40	49.6	49.6	49.6	92	47.4	0	0	---	0.00	29.958 
05:45	49.5	49.5	49.5	92	47.3	0	0	---	0.00	29.959 
05:50	49.5	49.5	49.5	92	47.3	0	0	---	0.00	29.959 
05:55	49.5	49.5	49.5	92	47.3	0	0	---	0.00	29.959 
06:00	49.5	49.5	49.5	92	47.3	0	0	---	0.00	29.958 
06:05	49.5	49.5	49.5	92	47.3	0	0	---	0.00	29.958 
06:10	49.4	49.4	49.4	92	47.2	0	0	---	0.00	29.958 
06:15	49.2	49.2	49.2	92	47.0	0	0	---	0.00	29.958 
06:20	49.2	49.2	49.2	93	47.3	0	0	---	0.00	29.958 
06:25	49.2	49.2	49.2	93	47.3	0	0	---	0.00	29.958 
06:30	49.2	49.2	49.2	93	47.3	0	0	---	0.00	29.956 
06:35	49.1	49.1	49.1	93	47.2	0	0	---	0.00	29.956 
06:40	49.1	49.1	49.1	93	47.2	0	0	---	0.00	29.956 
06:45	49.1	49.1	49.1	93	47.2	0	0	---	0.00	29.956 
06:50	48.9	48.9	48.9	93	47.0	0	0	---	0.00	29.956 
06:55	48.9	48.9	48.9	93	47.0	0	0	---	0.00	29.956 
07:00	48.9	48.9	48.9	93	47.0	0	0	---	0.00	29.957 
07:05	48.9	48.9	48.9	93	47.0	0	0	---	0.00	29.957 
07:10	48.9	48.9	48.9	93	47.0	0	0	---	0.00	29.957 
07:15	48.9	48.9	48.9	93	47.0	0	0	---	0.00	29.963 
07:20	48.8	48.8	48.8	93	46.9	0	0	---	0.00	29.963 
07:25	48.8	48.8	48.8	93	46.9	0	0	---	0.00	29.963 
07:30	48.8	48.8	48.8	93	46.9	0	0	---	0.00	29.965 
07:35	48.8	48.8	48.8	93	46.9	0	0	---	0.00	29.965 
07:40	48.8	48.8	48.8	93	46.9	0	0	---	0.00	29.965 
07:45	48.8	48.8	48.8	93	46.9	0	0	---	0.00	29.968 
07:50	48.8	48.8	48.8	93	46.9	0	0	---	0.00	29.968 
07:55	48.9	48.9	48.9	93	47.0	0	0	---	0.00	29.968 
08:00	48.9	48.9	48.9	94	47.2	0	0	---	0.00	29.969 
08:05	49.1	49.1	49.1	94	47.4	0	0	---	0.00	29.969 
08:10	49.2	49.2	49.2	94	47.5	0	0	---	0.00	29.969 
08:15	49.4	49.4	49.4	94	47.7	0	0	---	0.00	29.970 
08:20	49.5	49.5	49.5	94	47.8	0	0	---	0.00	29.970 
08:25	49.8	49.8	49.8	94	48.1	0	0	---	0.00	29.970 
08:30	50.1	50.1	50.1	94	48.4	0	0	---	0.00	29.965 
08:35	50.5	50.5	50.5	94	48.8	0	0	---	0.00	29.965 
08:40	51.0	51.0	51.0	95	49.6	0	0	---	0.00	29.965 
08:45	51.3	51.3	51.3	94	49.6	0	0	---	0.00	29.965 
08:50	51.6	51.6	51.6	94	49.9	0	0	---	0.00	29.965 
08:55	51.9	51.9	51.9	94	50.2	0	0	---	0.00	29.965 
09:00	52.3	52.3	52.3	94	50.6	0	0	---	0.00	29.963 
09:05	52.6	52.6	52.6	94	50.9	0	0	---	0.00	29.963 
09:10	53.1	53.1	53.1	93	51.1	0	1	270	0.00	29.963 
09:15	53.5	53.5	53.5	92	51.2	0	0	---	0.00	29.962 
09:20	53.9	53.9	53.9	92	51.6	0	0	---	0.00	29.962 
09:25	54.5	54.5	54.5	92	52.2	0	1	270	0.00	29.962 
09:30	55.0	55.0	55.0	91	52.4	0	0	---	0.00	29.959 
09:35	55.4	55.4	55.4	90	52.5	0	1	270	0.00	29.959 
09:40	55.9	55.9	55.9	88	52.4	0	0	---	0.00	29.959 
09:45	56.5	56.5	56.5	86	52.4	0	1	270	0.00	29.960 
09:50	56.9	56.9	56.9	84	52.1	0	1	270	0.00	29.960 
09:55	57.5	57.5	57.5	82	52.0	0	1	270	0.00	29.960 
10:00	58.0	58.0	58.0	81	52.2	0	0	---	0.00	29.959 
10:05	58.6	58.6	58.6	79	52.1	0	1	270	0.00	29.959 
10:10	59.0	59.0	59.0	78	52.1	0	0	---	0.00	29.959 
10:15	59.6	59.6	59.6	77	52.4	0	1	270	0.00	29.958 
10:20	60.4	60.4	60.4	75	52.4	0	0	---	0.00	29.958 
10:25	61.3	61.3	61.3	73	52.6	0	1	270	0.00	29.958 
10:30	62.1	62.1	62.1	71	52.6	0	1	270	0.00	29.952 
10:35	62.6	62.6	62.6	71	53.1	0	2	270	0.00	29.952 
10:40	63.2	63.2	63.2	70	53.2	0	0	---	0.00	29.952 
10:45	63.4	63.4	63.4	68	52.6	0	1	270	0.00	29.943 
10:50	64.0	64.0	64.0	69	53.6	0	0	---	0.00	29.943 
10:55	64.8	64.8	64.8	68	54.0	0	0	---	0.00	29.943 
11:00	65.2	65.2	65.2	66	53.5	0	1	270	0.00	29.947 
11:05	65.6	65.6	65.6	65	53.5	0	1	270	0.00	29.947 
11:10	66.3	66.3	66.3	65	54.2	0	1	270	0.00	29.947 
11:15	66.8	66.8	66.8	65	54.6	0	0	---	0.00	29.943 
11:20	67.3	67.3	67.3	64	54.7	0	0	---	0.00	29.943 
11:25	67.8	67.8	67.8	62	54.3	0	1	270	0.00	29.943 
11:30	67.6	67.6	67.6	58	52.3	0	1	270	0.00	29.938 
11:35	67.9	67.9	67.9	60	53.5	0	1	270	0.00	29.938 
11:40	68.4	68.4	68.4	62	54.9	0	1	270	0.00	29.938 
11:45	68.8	68.8	68.8	57	52.9	0	1	270	0.00	29.933 
11:50	69.3	69.3	69.3	57	53.4	0	1	270	0.00	29.933 
11:55	69.8	69.8	69.8	58	54.3	0	0	---	0.00	29.933 
12:00	70.1	70.1	70.1	53	52.2	0	1	270	0.00	29.928 
12:05	70.3	70.3	70.3	57	54.3	0	1	270	0.00	29.928 
12:10	70.4	70.4	70.4	56	53.9	0	1	270	0.00	29.928 
12:15	70.9	70.9	70.9	54	53.4	0	2	270	0.00	29.921 
12:20	71.1	71.1	71.1	54	53.6	0	1	270	0.00	29.921 
12:25	71.1	71.1	71.1	54	53.6	0	1	270	0.00	29.921 
12:30	71.3	71.3	71.3	51	52.2	0	0	---	0.00	29.921 
12:35	71.8	71.8	71.8	52	53.2	0	1	270	0.00	29.921 
12:40	72.3	72.3	72.3	50	52.6	0	1	270	0.00	29.921 
12:45	73.2	73.2	73.2	48	52.3	1	3	270	0.00	29.916 
12:50	73.5	73.5	73.5	46	51.4	0	1	112	0.00	29.916 
12:55	73.9	73.9	73.9	48	53.0	0	1	112	0.00	29.916 
13:00	74.2	74.2	74.2	49	53.8	0	1	112	0.00	29.904 
13:05	74.4	74.4	74.4	46	52.3	0	2	112	0.00	29.904 
13:10	74.6	74.6	74.6	47	53.0	0	2	112	0.00	29.904 
13:15	74.7	74.7	74.7	49	54.3	0	2	112	0.00	29.898 
13:20	75.4	75.4	77.7	45	52.6	0	2	112	0.00	29.898 
13:25	76.0	76.0	78.0	44	52.5	1	2	338	0.00	29.898 
13:30	76.3	76.3	78.1	44	52.8	0	5	22	0.00	29.890 
13:35	76.5	76.5	78.2	46	54.2	0	2	248	0.00	29.890 
13:40	76.5	76.5	78.2	45	53.6	0	1	248	0.00	29.890 
13:45	76.3	76.3	78.1	45	53.4	0	1	248	0.00	29.886 
13:50	76.3	76.3	78.1	45	53.4	0	2	248	0.00	29.886 
13:55	76.0	76.0	78.0	46	53.7	0	2	248	0.00	29.886 
14:00	75.8	75.8	77.9	47	54.1	0	2	248	0.00	29.880 
14:05	75.8	75.8	78.0	48	54.7	1	3	112	0.00	29.880 
14:10	75.8	75.8	78.0	51	56.4	0	1	112	0.00	29.880 
14:15	75.4	75.4	77.8	50	55.4	0	2	112	0.00	29.875 
14:20	75.6	75.6	77.9	52	56.7	1	3	112	0.00	29.875 
14:25	75.8	75.8	78.0	53	57.4	0	2	292	0.00	29.875 
14:30	76.1	76.1	78.1	52	57.2	0	2	68	0.00	29.870 
14:35	76.3	76.3	78.2	51	56.8	1	3	68	0.00	29.870 
14:40	76.3	76.3	78.2	51	56.8	0	1	68	0.00	29.870 
14:45	76.1	76.1	78.1	52	57.2	1	2	22	0.00	29.862 
14:50	76.0	76.0	78.1	54	58.1	1	4	158	0.00	29.862 
14:55	76.0	76.0	78.1	55	58.6	0	2	22	0.00	29.862 
15:00	76.1	76.1	78.1	53	57.7	1	4	90	0.00	29.855 
15:05	76.1	76.1	78.1	55	58.7	0	3	112	0.00	29.855 
15:10	76.5	76.5	78.4	55	59.1	0	2	112	0.00	29.855 
15:15	76.8	76.8	78.6	54	58.9	1	3	112	0.00	29.845 
15:20	76.8	76.8	78.5	52	57.8	1	3	112	0.00	29.845 
15:25	76.8	76.8	78.6	54	58.9	1	3	90	0.00	29.845 
15:30	77.0	77.0	78.7	54	59.1	0	2	90	0.00	29.839 
15:35	76.7	76.7	78.5	55	59.3	1	2	90	0.00	29.839 
15:40	76.3	76.3	78.3	55	58.9	1	3	90	0.00	29.839 
15:45	76.1	76.1	78.1	55	58.7	1	3	90	0.00	29.838 
15:50	75.6	75.6	77.8	55	58.3	0	2	112	0.00	29.838 
15:55	75.4	75.4	77.7	56	58.6	0	1	112	0.00	29.838 
16:00	75.4	75.4	77.7	57	59.1	0	1	112	0.00	29.832 
16:05	75.3	75.3	77.6	58	59.5	0	3	112	0.00	29.832 
16:10	75.3	75.3	77.6	58	59.5	0	2	112	0.00	29.832 
16:15	75.4	75.4	77.7	58	59.6	0	1	112	0.00	29.826 
16:20	75.6	75.6	77.8	59	60.2	0	3	112	0.00	29.826 
16:25	75.6	75.6	77.8	58	59.8	0	2	292	0.00	29.826 
16:30	75.8	75.8	77.9	58	59.9	1	3	112	0.00	29.813 
16:35	75.8	75.8	77.9	58	59.9	1	4	90	0.00	29.813 
16:40	75.6	75.6	77.8	59	60.2	0	2	90	0.00	29.813 
16:45	75.6	75.6	77.8	58	59.8	1	3	112	0.00	29.808 
16:50	75.8	75.8	77.9	59	60.4	0	1	112	0.00	29.808 
16:55	75.8	75.8	77.9	59	60.4	0	2	112	0.00	29.808 
17:00	75.8	75.8	77.9	58	59.9	0	2	270	0.00	29.797 
17:05	75.8	75.8	77.9	59	60.4	0	1	270	0.00	29.797 
17:10	75.6	75.6	77.8	57	59.3	1	3	270	0.00	29.797 
17:15	75.4	75.4	77.7	58	59.6	1	3	248	0.00	29.795 
17:20	75.3	75.3	77.6	59	60.0	0	2	248	0.00	29.795 
17:25	75.1	75.1	77.5	58	59.3	1	2	248	0.00	29.795 
17:30	74.9	74.9	74.9	60	60.1	0	3	248	0.00	29.791 
17:35	74.7	74.7	74.7	59	59.4	1	3	270	0.00	29.791 
17:40	74.7	74.7	74.7	59	59.4	1	2	270	0.00	29.791 
17:45	74.7	74.7	74.7	60	59.9	0	2	270	0.00	29.780 
17:50	74.7	74.7	74.7	60	59.9	0	3	270	0.00	29.780 
17:55	74.6	74.6	74.6	59	59.3	1	5	270	0.00	29.780 
18:00	74.4	74.4	74.4	60	59.6	1	3	270	0.00	29.778 
18:05	74.4	74.4	74.4	61	60.1	0	2	270	0.00	29.778 
18:10	74.4	74.4	74.4	61	60.1	0	1	270	0.00	29.778 
18:15	74.2	74.2	74.2	61	59.9	0	2	270	0.00	29.776 
18:20	74.0	74.0	74.0	61	59.7	1	4	270	0.00	29.776 
18:25	74.0	74.0	74.0	61	59.7	1	2	270	0.00	29.776 
18:30	73.9	73.9	73.9	62	60.0	0	1	270	0.00	29.778 
18:35	73.7	73.7	73.7	62	59.9	0	3	270	0.00	29.778 
18:40	73.5	73.5	73.5	62	59.7	1	2	315	0.00	29.778 
18:45	73.3	73.3	73.3	62	59.5	1	4	315	0.00	29.779 
18:50	73.2	73.2	73.2	63	59.8	0	2	315	0.00	29.779 
18:55	73.2	73.2	73.2	63	59.8	0	1	292	0.00	29.779 
19:00	73.0	73.0	73.0	63	59.6	0	2	292	0.00	29.776 
19:05	73.0	73.0	73.0	63	59.6	0	3	315	0.00	29.776 
19:10	72.8	72.8	72.8	63	59.5	0	1	315	0.00	29.776 
19:15	72.8	72.8	72.8	64	59.9	0	2	315	0.00	29.777 
19:20	72.7	72.7	72.7	64	59.8	0	2	225	0.00	29.777 
19:25	72.5	72.5	72.5	64	59.6	0	2	225	0.00	29.777 
19:30	72.5	72.5	72.5	65	60.0	0	1	225	0.00	29.775 
19:35	72.3	72.3	72.3	65	59.9	0	1	225	0.00	29.775 
19:40	72.1	72.1	72.1	66	60.1	0	1	225	0.00	29.775 
19:45	72.0	72.0	72.0	66	60.0	0	0	---	0.00	29.768 
19:50	71.8	71.8	71.8	66	59.8	0	1	225	0.00	29.768 
19:55	71.8	71.8	71.8	67	60.2	0	2	225	0.00	29.768 
20:00	71.6	71.6	71.6	67	60.0	0	3	292	0.00	29.766 
20:05	71.5	71.5	71.5	69	60.8	0	2	248	0.00	29.766 
20:10	71.1	71.1	71.1	70	60.8	0	1	248	0.00	29.766 
20:15	70.8	70.8	70.8	71	60.9	0	1	248	0.00	29.758 
20:20	70.4	70.4	70.4	72	60.9	0	1	248	0.00	29.758 
20:25	70.3	70.3	70.3	73	61.2	0	1	248	0.00	29.758 
20:30	70.1	70.1	70.1	73	61.0	0	2	248	0.00	29.761 
20:35	69.9	69.9	69.9	74	61.2	0	1	270	0.00	29.761 
20:40	69.9	69.9	69.9	75	61.6	0	2	270	0.00	29.761 
20:45	69.6	69.6	69.6	77	62.1	0	2	248	0.00	29.761 
20:50	69.3	69.3	69.3	80	62.9	0	3	225	0.00	29.761 
20:55	68.6	68.6	68.6	82	62.9	0	1	225	0.00	29.761 
21:00	68.1	68.1	68.1	84	63.1	0	1	338	0.00	29.763 
21:05	67.8	67.8	67.8	85	63.1	0	1	315	0.00	29.763 
21:10	67.4	67.4	67.4	86	63.1	0	1	315	0.00	29.763 
21:15	67.1	67.1	67.1	87	63.1	0	1	315	0.00	29.756 
21:20	66.9	66.9	66.9	88	63.2	0	1	315	0.00	29.756 
21:25	66.6	66.6	66.6	88	62.9	0	1	315	0.00	29.756 
21:30	66.4	66.4	66.4	88	62.7	0	0	---	0.00	29.755 
21:35	66.3	66.3	66.3	89	63.0	0	0	---	0.00	29.755 
21:40	66.1	66.1	66.1	89	62.8	0	0	---	0.00	29.755 
21:45	66.0	66.0	66.0	89	62.7	0	1	315	0.00	29.749 
21:50	66.0	66.0	66.0	90	63.0	0	1	315	0.00	29.749 
21:55	65.8	65.8	65.8	90	62.8	0	1	315	0.00	29.749 
22:00	65.6	65.6	65.6	90	62.6	0	0	---	0.00	29.746 
22:05	65.6	65.6	65.6	90	62.6	0	0	---	0.00	29.746 
22:10	65.5	65.5	65.5	91	62.8	0	0	---	0.00	29.746 
22:15	65.5	65.5	65.5	91	62.8	0	0	---	0.00	29.739 
22:20	65.3	65.3	65.3	91	62.6	0	0	---	0.00	29.739 
22:25	65.3	65.3	65.3	91	62.6	0	0	---	0.00	29.739 
22:30	65.3	65.3	65.3	92	62.9	0	0	---	0.00	29.739 
22:35	65.2	65.2	65.2	92	62.8	0	0	---	0.00	29.739 
22:40	65.3	65.3	65.3	92	62.9	0	1	315	0.00	29.739 
22:45	65.3	65.3	65.3	92	62.9	0	1	315	0.00	29.729 
22:50	65.3	65.3	65.3	92	62.9	0	0	---	0.00	29.729 
22:55	65.3	65.3	65.3	92	62.9	0	1	315	0.00	29.729 
23:00	65.3	65.3	65.3	92	62.9	0	1	315	0.00	29.729 
23:05	65.5	65.5	65.5	92	63.1	0	1	315	0.00	29.729 
23:10	65.5	65.5	65.5	92	63.1	0	1	315	0.00	29.729 
23:15	65.5	65.5	65.5	93	63.4	0	0	---	0.00	29.723 
23:20	65.5	65.5	65.5	93	63.4	0	1	315	0.00	29.723 
23:25	65.5	65.5	65.5	93	63.4	0	1	315	0.00	29.723 
23:30	65.6	65.6	65.6	93	63.5	0	1	315	0.00	29.722 
23:35	65.6	65.6	65.6	93	63.5	0	3	315	0.00	29.722 
23:40	65.8	65.8	65.8	93	63.7	0	3	248	0.00	29.722 
23:45	65.8	65.8	65.8	93	63.7	0	3	248	0.00	29.719 
23:50	66.0	66.0	66.0	93	63.9	0	2	248	0.00	29.719 
23:55	66.0	66.0	66.0	93	63.9	0	2	248	0.00	29.719 

CoCoRaHS
IN-AL-39
A2 Web Hosting
Creative Commons License
GoDaddy
search engine by freefind advanced

loaded 2018-11-14 03:36:39 • last modified 2010-11-18 10:43:29
Privacy PolicyDisclaimer
• wx.awcolley.com is powered by PmWiki v.2002016 •
• all content (unless otherwise noted) © 2018 A W Colley